Time;durP1;ratioP1;P1;durP2;ratioP2;P2;SDS_P1;SDS_P2;PMS_P1;PMS_P2;Temp;Humidity;BMP_temperature;BMP_pressure;BME280_temperature;BME280_humidity;BME280_pressure;Samples;Min_cycle;Max_cycle;Signal;HPM_P1;HPM_P2
2021/03/27 00:01:50;;;;;;;17.75;7.43;;;;;;;6.92;100.00;93954.84;5094115;28;20459;-78
2021/03/27 00:04:22;;;;;;;13.43;5.53;;;;;;;6.89;100.00;93966.38;5094940;28;20198;-79
2021/03/27 00:06:52;;;;;;;10.37;5.37;;;;;;;6.79;100.00;93960.59;5094660;28;20226;-80
2021/03/27 00:09:30;;;;;;;11.73;5.70;;;;;;;6.72;100.00;93952.69;5094631;28;20202;-80
2021/03/27 00:12:01;;;;;;;13.00;6.57;;;;;;;6.70;100.00;93946.09;5094699;28;20202;-80
2021/03/27 00:14:37;;;;;;;12.53;6.80;;;;;;;6.61;100.00;93932.34;5094677;28;20202;-79
2021/03/27 00:17:08;;;;;;;14.30;6.40;;;;;;;6.56;100.00;93913.91;5094506;28;20255;-79
2021/03/27 00:19:41;;;;;;;13.13;6.07;;;;;;;6.48;100.00;93901.81;5094123;28;20696;-80
2021/03/27 00:22:16;;;;;;;8.33;4.90;;;;;;;6.40;100.00;93894.06;5094293;28;20722;-79
2021/03/27 00:25:00;;;;;;;9.70;5.10;;;;;;;6.29;100.00;93898.69;5094409;28;20217;-80
2021/03/27 00:27:32;;;;;;;10.67;4.43;;;;;;;6.28;100.00;93885.88;5094251;28;20194;-79
2021/03/27 00:30:05;;;;;;;8.50;4.67;;;;;;;6.19;100.00;93882.50;5094278;28;20198;-79
2021/03/27 00:32:34;;;;;;;11.53;4.57;;;;;;;6.17;100.00;93879.28;5093898;28;20554;-79
2021/03/27 00:35:03;;;;;;;8.43;4.20;;;;;;;6.11;100.00;93885.16;5094056;28;20202;-80
2021/03/27 00:37:32;;;;;;;7.43;4.10;;;;;;;6.06;100.00;93884.84;5094131;28;20205;-80
2021/03/27 00:40:01;;;;;;;6.43;3.80;;;;;;;6.07;100.00;93878.69;5093886;28;20247;-81
2021/03/27 00:42:31;;;;;;;6.07;3.47;;;;;;;6.01;100.00;93879.38;5094015;28;20218;-81
2021/03/27 00:45:01;;;;;;;4.87;3.10;;;;;;;6.04;100.00;93873.84;5093713;28;20236;-81
2021/03/27 00:47:31;;;;;;;5.20;2.93;;;;;;;6.15;100.00;93857.94;5094040;28;20219;-81
2021/03/27 00:50:02;;;;;;;4.73;2.77;;;;;;;6.08;100.00;93851.81;5093276;28;20220;-78
2021/03/27 00:52:35;;;;;;;7.03;3.23;;;;;;;6.15;100.00;93850.16;5093781;28;20671;-78
2021/03/27 00:55:06;;;;;;;6.55;3.97;;;;;;;6.17;100.00;93840.41;5093325;28;20494;-80
2021/03/27 00:57:36;;;;;;;6.73;3.40;;;;;;;6.18;100.00;93843.78;5093574;28;20205;-80
2021/03/27 01:00:08;;;;;;;8.13;3.77;;;;;;;6.16;100.00;93844.00;5093778;28;20221;-80
2021/03/27 01:02:36;;;;;;;7.13;3.57;;;;;;;6.16;100.00;93838.81;5093527;28;20198;-79
2021/03/27 01:05:08;;;;;;;8.97;3.83;;;;;;;6.18;100.00;93836.84;5093483;28;20232;-79
2021/03/27 01:07:35;;;;;;;6.87;3.40;;;;;;;6.14;100.00;93843.34;5093488;28;20679;-79
2021/03/27 01:10:09;;;;;;;6.97;4.13;;;;;;;6.21;100.00;93846.88;5093280;28;20198;-79
2021/03/27 01:12:40;;;;;;;9.37;3.97;;;;;;;6.17;100.00;93847.38;5093588;28;20206;-79
2021/03/27 01:15:11;;;;;;;9.47;3.63;;;;;;;6.35;100.00;93844.53;5093449;28;20205;-79
2021/03/27 01:17:41;;;;;;;8.20;3.60;;;;;;;6.39;100.00;93843.19;5093469;28;20202;-79
2021/03/27 01:20:14;;;;;;;6.40;4.23;;;;;;;6.34;100.00;93848.88;5093215;28;20225;-78
2021/03/27 01:22:41;;;;;;;7.70;3.80;;;;;;;6.38;100.00;93849.34;5093502;28;20238;-79
2021/03/27 01:25:09;;;;;;;7.47;4.13;;;;;;;6.48;100.00;93839.56;5093185;28;20217;-80
2021/03/27 01:27:46;;;;;;;9.37;4.50;;;;;;;6.57;100.00;93846.28;5093277;28;20194;-79
2021/03/27 01:30:20;;;;;;;9.23;5.22;;;;;;;6.54;100.00;93836.25;5091971;28;20444;-81
2021/03/27 01:32:50;;;;;;;8.10;4.70;;;;;;;6.59;100.00;93841.72;5093123;28;20198;-78
2021/03/27 01:35:23;;;;;;;9.63;4.80;;;;;;;6.70;100.00;93834.53;5093045;28;20232;-81
2021/03/27 01:37:54;;;;;;;7.23;4.03;;;;;;;6.71;100.00;93825.75;5093176;28;20206;-78
2021/03/27 01:40:40;;;;;;;6.10;3.70;;;;;;;6.67;100.00;93823.50;5093214;28;20559;-80
2021/03/27 01:43:24;;;;;;;6.93;3.63;;;;;;;6.66;100.00;93816.72;5093006;28;20194;-79
2021/03/27 01:46:22;;;;;;;4.70;3.03;;;;;;;6.73;100.00;93811.63;5091316;28;20237;-80
2021/03/27 01:49:01;;;;;;;5.47;2.90;;;;;;;6.70;100.00;93813.78;5089694;28;20198;-80
2021/03/27 01:51:49;;;;;;;3.50;2.50;;;;;;;6.86;100.00;93821.38;5092955;28;20198;-81
2021/03/27 01:54:22;;;;;;;4.50;2.23;;;;;;;6.82;100.00;93820.16;5093075;28;20201;-81
2021/03/27 01:57:02;;;;;;;2.93;1.93;;;;;;;6.81;100.00;93824.53;5093035;28;20252;-79
2021/03/27 01:59:33;;;;;;;2.73;1.80;;;;;;;6.81;100.00;93827.13;5092987;28;20204;-78
2021/03/27 02:02:11;;;;;;;4.27;2.20;;;;;;;6.80;100.00;93822.13;5092738;28;20198;-79
2021/03/27 02:04:42;;;;;;;4.37;2.40;;;;;;;6.79;100.00;93821.28;5092980;28;20273;-78
2021/03/27 02:07:27;;;;;;;2.87;1.90;;;;;;;6.80;100.00;93816.94;5092941;28;20198;-81
2021/03/27 02:09:59;;;;;;;3.30;2.10;;;;;;;6.75;100.00;93812.25;5092815;28;20198;-79
2021/03/27 02:12:37;;;;;;;3.37;2.10;;;;;;;6.73;100.00;93816.00;5092729;28;20322;-79
2021/03/27 02:15:08;;;;;;;2.77;2.10;;;;;;;6.76;100.00;93813.06;5092678;28;20202;-78
2021/03/27 02:17:41;;;;;;;4.43;2.30;;;;;;;6.84;100.00;93828.56;5092850;28;20206;-81
2021/03/27 02:20:20;;;;;;;6.87;2.20;;;;;;;6.85;100.00;93836.16;5092490;28;20233;-79
2021/03/27 02:22:58;;;;;;;2.63;1.90;;;;;;;6.82;100.00;93851.28;5092608;28;20201;-80
2021/03/27 02:26:04;;;;;;;2.73;2.10;;;;;;;6.78;100.00;93860.41;5092511;28;20679;-78
2021/03/27 02:29:00;;;;;;;5.57;3.00;;;;;;;6.78;100.00;93860.41;5092648;28;20198;-79
2021/03/27 02:31:34;;;;;;;5.00;2.50;;;;;;;6.72;100.00;93868.88;5092712;28;20213;-80
2021/03/27 02:34:09;;;;;;;3.93;2.60;;;;;;;6.73;100.00;93878.25;5092743;28;20202;-80
2021/03/27 02:36:44;;;;;;;11.90;2.87;;;;;;;6.68;100.00;93881.41;5092567;28;20205;-80
2021/03/27 02:39:18;;;;;;;5.53;2.70;;;;;;;6.66;100.00;93873.78;5092449;28;20656;-77
2021/03/27 02:41:57;;;;;;;3.93;2.33;;;;;;;6.65;100.00;93881.75;5092390;28;20210;-78
2021/03/27 02:44:30;;;;;;;3.63;2.60;;;;;;;6.69;100.00;93880.41;5092649;28;20198;-78
2021/03/27 02:47:06;;;;;;;3.93;2.40;;;;;;;6.62;100.00;93877.69;5092526;28;20634;-77
2021/03/27 02:49:45;;;;;;;4.17;2.60;;;;;;;6.63;100.00;93874.13;5092450;28;20205;-81
2021/03/27 02:52:28;;;;;;;4.27;2.33;;;;;;;6.60;100.00;93878.88;5091889;28;20198;-77
2021/03/27 02:54:58;;;;;;;3.57;2.17;;;;;;;6.70;100.00;93886.41;5092499;28;20627;-79
2021/03/27 02:57:34;;;;;;;3.43;2.00;;;;;;;6.67;100.00;93874.59;5094547;28;20198;-79
2021/03/27 03:00:13;;;;;;;3.83;1.93;;;;;;;6.66;100.00;93888.53;5095960;28;20201;-79
2021/03/27 03:02:50;;;;;;;2.97;2.17;;;;;;;6.60;100.00;93889.25;5095836;28;20206;-78
2021/03/27 03:05:21;;;;;;;3.43;2.00;;;;;;;6.66;100.00;93897.13;5095826;28;20232;-78
2021/03/27 03:08:03;;;;;;;3.20;2.20;;;;;;;6.61;100.00;93906.41;5095885;28;20252;-78
2021/03/27 03:10:34;;;;;;;3.22;2.20;;;;;;;6.63;100.00;93912.25;5094571;28;20447;-80
2021/03/27 03:13:07;;;;;;;2.77;2.00;;;;;;;6.60;100.00;93912.59;5095608;28;20213;-79
2021/03/27 03:15:38;;;;;;;2.47;1.63;;;;;;;6.59;100.00;93914.34;5095864;28;20206;-79
2021/03/27 03:18:18;;;;;;;3.53;2.27;;;;;;;6.57;100.00;93931.09;5095510;28;20201;-78
2021/03/27 03:20:51;;;;;;;2.00;1.63;;;;;;;6.44;100.00;93921.25;5095513;28;20229;-79
2021/03/27 03:23:28;;;;;;;2.70;2.10;;;;;;;6.38;100.00;93914.16;5095221;28;20202;-79
2021/03/27 03:26:02;;;;;;;3.20;1.93;;;;;;;6.24;100.00;93906.13;5095576;28;20234;-79
2021/03/27 03:28:34;;;;;;;2.77;1.70;;;;;;;6.19;100.00;93892.09;5095454;28;20202;-79
2021/03/27 03:31:15;;;;;;;2.10;1.47;;;;;;;6.10;100.00;93878.38;5095480;28;20198;-79
2021/03/27 03:33:59;;;;;;;2.43;1.87;;;;;;;6.01;100.00;93869.00;5095293;28;20209;-78
2021/03/27 03:36:34;;;;;;;2.27;1.80;;;;;;;5.96;100.00;93856.56;5095390;28;20193;-79
2021/03/27 03:39:14;;;;;;;1.47;1.30;;;;;;;5.85;100.00;93860.31;5095655;28;20194;-77
2021/03/27 03:41:52;;;;;;;3.30;1.60;;;;;;;5.67;100.00;93867.53;5094123;28;20429;-80
2021/03/27 03:44:30;;;;;;;1.50;1.40;;;;;;;5.63;100.00;93872.22;5095110;28;20548;-79
2021/03/27 03:47:05;;;;;;;1.70;1.43;;;;;;;5.61;100.00;93865.59;5094833;28;20232;-78
2021/03/27 03:49:54;;;;;;;1.60;1.47;;;;;;;5.59;100.00;93875.31;5095151;28;20201;-77
2021/03/27 03:52:32;;;;;;;2.45;1.50;;;;;;;5.57;100.00;93888.44;5093857;28;20437;-80
2021/03/27 03:55:13;;;;;;;2.87;1.60;;;;;;;5.42;100.00;93900.44;5095108;28;20202;-79
2021/03/27 03:58:20;;;;;;;1.93;1.40;;;;;;;5.61;100.00;93915.59;5094974;28;20607;-80
2021/03/27 04:00:57;;;;;;;3.80;1.87;;;;;;;5.61;100.00;93920.78;5094645;28;20266;-79
2021/03/27 04:03:31;;;;;;;2.00;1.57;;;;;;;5.68;100.00;93926.09;5094967;28;20197;-80
2021/03/27 04:06:01;;;;;;;2.60;1.67;;;;;;;5.77;100.00;93925.09;5094523;28;20221;-78
2021/03/27 04:08:35;;;;;;;3.63;1.80;;;;;;;5.78;100.00;93926.72;5094252;28;20280;-81
2021/03/27 04:11:09;;;;;;;2.37;1.80;;;;;;;5.80;100.00;93940.31;5094594;28;20206;-81
2021/03/27 04:13:39;;;;;;;4.20;2.00;;;;;;;5.86;100.00;93939.66;5094742;28;20206;-80
2021/03/27 04:16:12;;;;;;;3.20;1.77;;;;;;;5.99;100.00;93956.47;5094275;28;20670;-80
2021/03/27 04:18:43;;;;;;;2.70;1.90;;;;;;;6.10;100.00;94033.88;5094341;28;20219;-79
2021/03/27 04:21:18;;;;;;;1.07;1.00;;;;;;;4.99;100.00;94051.53;5094448;28;20198;-80
2021/03/27 04:23:49;;;;;;;1.67;0.87;;;;;;;4.41;100.00;94032.50;5094415;28;20384;-78
2021/03/27 04:26:24;;;;;;;1.13;0.67;;;;;;;4.26;100.00;94055.53;5094074;28;20708;-80
2021/03/27 04:29:11;;;;;;;1.07;0.90;;;;;;;4.19;100.00;94049.34;5094247;28;20280;-79
2021/03/27 04:31:44;;;;;;;0.80;0.80;;;;;;;4.18;100.00;94077.91;5094434;28;20198;-79
2021/03/27 04:34:14;;;;;;;1.70;1.30;;;;;;;4.08;100.00;94078.06;5094044;28;20209;-80
2021/03/27 04:36:46;;;;;;;5.03;1.00;;;;;;;4.10;100.00;94078.72;5093918;28;20724;-80
2021/03/27 04:39:21;;;;;;;4.18;2.25;;;;;;;4.07;100.00;94086.75;5092787;28;20515;-80
2021/03/27 04:41:58;;;;;;;1.60;1.00;;;;;;;4.12;100.00;94094.06;5093962;28;20197;-81
2021/03/27 04:44:33;;;;;;;2.27;1.00;;;;;;;4.10;100.00;94101.13;5093945;28;20201;-79
2021/03/27 04:47:09;;;;;;;1.53;1.07;;;;;;;4.17;100.00;94108.13;5093979;28;20593;-79
2021/03/27 04:49:43;;;;;;;1.30;1.10;;;;;;;4.22;100.00;94118.81;5093768;28;20594;-79
2021/03/27 04:52:14;;;;;;;1.87;1.20;;;;;;;4.12;100.00;94130.22;5093825;28;20198;-80
2021/03/27 04:54:55;;;;;;;2.10;1.40;;;;;;;3.94;100.00;94119.94;5093767;28;20216;-79
2021/03/27 04:57:31;;;;;;;1.20;1.10;;;;;;;3.84;100.00;94138.09;5093224;28;20209;-79
2021/03/27 05:00:09;;;;;;;1.57;1.00;;;;;;;3.74;100.00;94147.72;5093739;28;20204;-79
2021/03/27 05:02:43;;;;;;;1.70;1.20;;;;;;;3.61;100.00;94137.75;5093746;28;20194;-81
2021/03/27 05:05:18;;;;;;;1.30;1.10;;;;;;;3.63;100.00;94152.16;5093546;28;20209;-80
2021/03/27 05:07:57;;;;;;;1.70;1.23;;;;;;;3.56;100.00;94145.94;5093818;28;20613;-79
2021/03/27 05:10:33;;;;;;;1.70;1.33;;;;;;;3.52;100.00;94154.94;5093635;28;20228;-79
2021/03/27 05:13:11;;;;;;;4.30;1.55;;;;;;;3.50;100.00;94160.25;5092797;28;20799;-80
2021/03/27 05:15:47;;;;;;;2.03;1.40;;;;;;;3.44;100.00;94160.03;5093348;28;20201;-81
2021/03/27 05:18:35;;;;;;;1.70;1.50;;;;;;;3.51;100.00;94181.72;5093587;28;20201;-80
2021/03/27 05:21:13;;;;;;;3.30;1.40;;;;;;;3.47;100.00;94177.81;5092980;28;20205;-80
2021/03/27 05:23:53;;;;;;;1.60;1.40;;;;;;;3.46;100.00;94171.00;5093422;28;20210;-80
2021/03/27 05:26:27;;;;;;;1.40;1.23;;;;;;;3.50;100.00;94187.84;5093121;28;20685;-80
2021/03/27 05:29:24;;;;;;;1.93;1.40;;;;;;;3.43;100.00;94192.78;5093442;28;20559;-79
2021/03/27 05:31:55;;;;;;;4.80;1.50;;;;;;;3.58;100.00;94195.66;5093138;28;20208;-80
2021/03/27 05:34:31;;;;;;;1.23;0.80;;;;;;;3.51;100.00;94202.34;5093051;28;20205;-78
2021/03/27 05:37:34;;;;;;;2.03;1.33;;;;;;;3.46;100.00;94212.31;5093306;28;20244;-79
2021/03/27 05:40:34;;;;;;;1.17;0.93;;;;;;;3.46;100.00;94204.56;5093267;28;20428;-77
2021/03/27 05:43:32;;;;;;;2.30;1.10;;;;;;;3.47;100.00;94224.28;5092980;28;20194;-78
2021/03/27 05:46:49;;;;;;;1.47;1.00;;;;;;;3.46;100.00;94238.13;5093128;28;20226;-81
2021/03/27 05:49:38;;;;;;;1.33;1.17;;;;;;;3.46;100.00;94245.88;5030525;28;20219;-80
2021/03/27 05:52:25;;;;;;;6.13;1.47;;;;;;;3.43;100.00;94248.72;5030494;28;20663;-80
2021/03/27 05:55:28;;;;;;;1.20;1.00;;;;;;;3.51;100.00;94266.88;5076184;28;20289;-78
2021/03/27 05:58:24;;;;;;;1.53;1.27;;;;;;;3.47;100.00;94278.47;5093103;28;20204;-78
2021/03/27 06:00:57;;;;;;;2.13;0.97;;;;;;;3.42;100.00;94278.09;5092996;28;20202;-81
2021/03/27 06:03:53;;;;;;;1.40;1.10;;;;;;;3.51;100.00;94282.38;5092926;28;20244;-78
2021/03/27 06:06:34;;;;;;;2.83;0.90;;;;;;;3.50;100.00;94279.00;5092735;28;20233;-80
2021/03/27 06:09:28;;;;;;;0.90;0.90;;;;;;;3.51;100.00;94296.09;5092883;28;20193;-80
2021/03/27 06:12:17;;;;;;;2.50;0.83;;;;;;;3.45;100.00;94293.28;5092930;28;20230;-80
2021/03/27 06:15:12;;;;;;;1.67;0.90;;;;;;;3.49;100.00;94297.19;5092877;28;20202;-80
2021/03/27 06:18:01;;;;;;;3.53;0.83;;;;;;;3.38;100.00;94297.38;5092740;28;20225;-80
2021/03/27 06:20:44;;;;;;;2.10;0.87;;;;;;;3.31;100.00;94313.47;5092433;28;20252;-80
2021/03/27 06:23:46;;;;;;;1.90;0.93;;;;;;;3.37;100.00;94326.75;5092625;28;20202;-79
2021/03/27 06:26:33;;;;;;;3.57;1.30;;;;;;;3.29;100.00;94330.03;5092381;28;20585;-78
2021/03/27 06:29:23;;;;;;;1.03;0.90;;;;;;;3.20;100.00;94331.69;5092888;28;20198;-78
2021/03/27 06:32:13;;;;;;;3.60;0.90;;;;;;;3.21;100.00;94346.19;5095593;28;20201;-78
2021/03/27 06:34:56;;;;;;;1.63;1.00;;;;;;;3.29;100.00;94341.16;5096495;28;20198;-79
2021/03/27 06:38:00;;;;;;;2.07;0.83;;;;;;;3.29;100.00;94348.09;5096637;28;20239;-79
2021/03/27 06:40:53;;;;;;;1.33;1.13;;;;;;;3.21;100.00;94353.94;5096376;28;20279;-77
2021/03/27 06:43:41;;;;;;;3.92;1.10;;;;;;;3.32;100.00;94360.72;5095968;28;20467;-77
2021/03/27 06:46:21;;;;;;;1.17;0.87;;;;;;;3.30;100.00;94372.94;5096124;28;20708;-80
2021/03/27 06:49:34;;;;;;;6.93;1.10;;;;;;;3.23;100.00;94372.69;5095644;28;20198;-79
2021/03/27 06:52:24;;;;;;;5.80;0.77;;;;;;;3.24;100.00;94369.16;5096344;28;20205;-79
2021/03/27 06:55:07;;;;;;;1.45;0.73;;;;;;;3.24;100.00;94368.34;5095019;28;20895;-80
2021/03/27 06:57:54;;;;;;;3.77;0.80;;;;;;;3.31;100.00;94369.41;5096123;28;20502;-80
2021/03/27 07:00:42;;;;;;;2.37;0.80;;;;;;;3.29;100.00;94368.72;5096260;28;20245;-78
2021/03/27 07:03:51;;;;;;;1.83;0.70;;;;;;;3.22;100.00;94381.38;5096095;28;20205;-77
2021/03/27 07:06:43;;;;;;;2.60;0.90;;;;;;;3.27;100.00;94374.03;5095665;28;20221;-77
2021/03/27 07:10:04;;;;;;;2.53;0.83;;;;;;;3.28;100.00;94370.50;5095926;28;20205;-77
2021/03/27 07:13:09;;;;;;;2.97;1.03;;;;;;;3.13;100.00;94377.88;5095718;28;20315;-80
2021/03/27 07:16:20;;;;;;;3.30;1.10;;;;;;;3.09;100.00;94373.13;5088828;28;20204;-77
2021/03/27 07:19:28;;;;;;;2.20;0.70;;;;;;;3.10;100.00;94372.19;5032842;28;20706;-79
2021/03/27 07:22:27;;;;;;;1.43;0.80;;;;;;;3.11;100.00;94368.63;5033191;28;20544;-78
2021/03/27 07:25:24;;;;;;;2.80;1.13;;;;;;;3.17;100.00;94362.13;5095668;28;20240;-77
2021/03/27 07:28:12;;;;;;;5.03;1.50;;;;;;;3.17;100.00;94344.88;5068566;28;20294;-78
2021/03/27 07:31:17;;;;;;;1.13;0.70;;;;;;;3.25;100.00;94367.41;5095505;28;20231;-80
2021/03/27 07:34:25;;;;;;;0.97;0.70;;;;;;;3.55;100.00;94380.97;5095526;28;20198;-80
2021/03/27 07:37:31;;;;;;;3.17;1.00;;;;;;;4.08;100.00;94378.53;5095269;28;20561;-79
2021/03/27 07:40:12;;;;;;;0.80;0.80;;;;;;;4.75;100.00;94378.19;5095706;28;20216;-78
2021/03/27 07:43:04;;;;;;;1.03;0.60;;;;;;;5.11;100.00;94378.13;5094467;28;20206;-79
2021/03/27 07:45:38;;;;;;;3.77;1.00;;;;;;;4.79;100.00;94376.91;5095152;28;20227;-78
2021/03/27 07:48:43;;;;;;;2.90;0.90;;;;;;;4.63;100.00;94387.16;5095318;28;20205;-79
2021/03/27 07:51:24;;;;;;;0.97;0.70;;;;;;;4.35;100.00;94410.47;5095223;28;20255;-78
2021/03/27 07:54:25;;;;;;;4.33;0.80;;;;;;;4.35;100.00;94409.66;5094847;28;20674;-78
2021/03/27 07:57:11;;;;;;;2.13;1.00;;;;;;;4.29;100.00;94415.41;5094845;28;20683;-78
2021/03/27 07:59:52;;;;;;;0.80;0.80;;;;;;;4.36;100.00;94422.41;5094850;28;20580;-78
2021/03/27 08:02:41;;;;;;;4.60;0.80;;;;;;;4.08;100.00;94413.91;5094770;28;20198;-77
2021/03/27 08:05:36;;;;;;;1.77;1.03;;;;;;;3.91;100.00;94420.63;5094626;28;20645;-77
2021/03/27 08:08:19;;;;;;;1.23;0.90;;;;;;;3.85;100.00;94423.81;5094686;28;20206;-78
2021/03/27 08:11:06;;;;;;;2.93;0.90;;;;;;;3.86;100.00;94418.50;5094496;28;20202;-77
2021/03/27 08:13:54;;;;;;;3.47;0.70;;;;;;;3.98;100.00;94426.03;5094632;28;20220;-79
2021/03/27 08:16:44;;;;;;;4.37;0.80;;;;;;;4.49;100.00;94434.19;5094487;28;20204;-78
2021/03/27 08:19:31;;;;;;;2.90;1.00;;;;;;;4.45;97.39;94426.72;5094279;28;20316;-77
2021/03/27 08:22:17;;;;;;;1.10;0.60;;;;;;;4.49;100.00;94436.78;5094553;28;20198;-77
2021/03/27 08:24:50;;;;;;;1.03;0.67;;;;;;;4.39;100.00;94440.22;5094390;28;20216;-79
2021/03/27 08:27:53;;;;;;;1.47;0.80;;;;;;;4.26;100.00;94445.78;5094218;28;20321;-77
2021/03/27 08:30:47;;;;;;;2.60;1.10;;;;;;;4.51;100.00;94455.53;5094039;28;20202;-77
2021/03/27 08:33:45;;;;;;;2.30;0.70;;;;;;;4.63;100.00;94460.34;5094104;28;20202;-79
2021/03/27 08:36:40;;;;;;;3.00;1.00;;;;;;;5.02;100.00;94453.25;5094371;28;20255;-81
2021/03/27 08:39:49;;;;;;;2.20;0.70;;;;;;;5.30;100.00;94461.72;5094108;28;20553;-77
2021/03/27 08:42:44;;;;;;;1.47;0.60;;;;;;;5.15;97.28;94457.06;5094116;28;20202;-77
2021/03/27 08:45:22;;;;;;;0.83;0.70;;;;;;;4.93;100.00;94468.72;5093840;28;20603;-78
2021/03/27 08:48:23;;;;;;;4.03;0.80;;;;;;;4.79;100.00;94467.44;5094103;28;20198;-78
2021/03/27 08:51:07;;;;;;;3.50;1.03;;;;;;;4.67;100.00;94478.97;5093555;28;20205;-78
2021/03/27 08:53:57;;;;;;;2.90;0.97;;;;;;;4.44;100.00;94492.31;5093665;28;20676;-77
2021/03/27 08:56:57;;;;;;;2.60;0.97;;;;;;;4.17;100.00;94503.47;5093789;28;20206;-77
2021/03/27 09:00:05;;;;;;;2.27;0.90;;;;;;;3.66;100.00;94518.47;5093874;28;20206;-78
2021/03/27 09:03:13;;;;;;;1.20;0.87;;;;;;;3.39;100.00;94526.13;5064305;28;20206;-85
2021/03/27 09:06:11;;;;;;;0.80;0.80;;;;;;;3.20;100.00;94524.34;5083633;28;20561;-83
2021/03/27 09:08:42;;;;;;;4.20;0.80;;;;;;;3.11;100.00;94524.25;5093605;28;20318;-79
2021/03/27 09:11:24;;;;;;;2.60;0.90;;;;;;;3.30;100.00;94526.00;5093433;28;20210;-81
2021/03/27 09:14:10;;;;;;;3.00;1.00;;;;;;;3.43;100.00;94515.41;5093690;28;20281;-83
2021/03/27 09:17:06;;;;;;;1.07;0.70;;;;;;;3.93;100.00;94516.91;5093667;28;20563;-82
2021/03/27 09:20:03;;;;;;;2.67;1.00;;;;;;;4.14;100.00;94526.19;5093585;28;20238;-83
2021/03/27 09:22:48;;;;;;;2.37;0.70;;;;;;;4.34;100.00;94522.56;5094151;28;20204;-83
2021/03/27 09:25:33;;;;;;;2.17;0.80;;;;;;;4.38;100.00;94517.91;5093801;28;20663;-84
2021/03/27 09:28:25;;;;;;;1.90;1.23;;;;;;;4.77;100.00;94521.09;5093698;28;20394;-85
2021/03/27 09:31:05;;;;;;;2.80;0.83;;;;;;;5.23;100.00;94527.97;5093115;28;20251;-82
2021/03/27 09:33:37;;;;;;;1.83;1.10;;;;;;;5.09;100.00;94529.31;5092966;28;20652;-78
2021/03/27 09:36:19;;;;;;;3.20;1.00;;;;;;;5.02;100.00;94529.09;5092953;28;20297;-80
2021/03/27 09:38:51;;;;;;;3.73;1.07;;;;;;;4.90;96.87;94528.50;5093246;28;20202;-78
2021/03/27 09:41:49;;;;;;;5.73;1.17;;;;;;;4.91;94.45;94530.16;5092918;28;20197;-78
2021/03/27 09:44:42;;;;;;;1.97;0.90;;;;;;;5.01;96.24;94519.69;5093077;28;20220;-79
2021/03/27 09:47:28;;;;;;;3.67;1.20;;;;;;;5.29;94.78;94532.56;5093121;28;20291;-78
2021/03/27 09:49:59;;;;;;;3.77;0.90;;;;;;;5.34;90.33;94535.53;5093087;28;20224;-79
2021/03/27 09:52:40;;;;;;;2.40;0.90;;;;;;;5.37;85.75;94537.81;5092938;28;20348;-78
2021/03/27 09:55:41;;;;;;;1.37;0.83;;;;;;;5.55;91.00;94527.44;5092981;28;20209;-78
2021/03/27 09:58:20;;;;;;;3.20;0.80;;;;;;;5.68;87.15;94533.03;5081834;28;20623;-79
2021/03/27 10:01:01;;;;;;;2.37;0.80;;;;;;;5.85;85.55;94525.38;5092873;28;20201;-80
2021/03/27 10:03:36;;;;;;;1.67;1.00;;;;;;;5.95;84.43;94527.88;5093009;28;20186;-78
2021/03/27 10:06:14;;;;;;;3.17;0.77;;;;;;;6.11;82.52;94515.84;5093848;28;20224;-81
2021/03/27 10:08:46;;;;;;;1.47;0.70;;;;;;;6.62;83.38;94515.06;5097834;28;20202;-80
2021/03/27 10:11:17;;;;;;;3.93;0.73;;;;;;;6.88;82.01;94524.53;5096972;28;20302;-79
2021/03/27 10:13:56;;;;;;;1.87;0.90;;;;;;;7.14;80.21;94540.00;5096792;28;20201;-79
2021/03/27 10:16:28;;;;;;;2.53;0.73;;;;;;;7.27;77.18;94529.94;5097026;28;20205;-78
2021/03/27 10:19:02;;;;;;;6.83;1.90;;;;;;;6.94;77.83;94539.47;5096655;28;20264;-82
2021/03/27 10:21:47;;;;;;;0.60;0.60;;;;;;;7.04;75.05;94540.13;5096689;28;20198;-80
2021/03/27 10:24:30;;;;;;;6.30;1.17;;;;;;;7.44;74.03;94535.16;5097121;28;20205;-77
2021/03/27 10:27:06;;;;;;;1.90;1.00;;;;;;;7.65;68.14;94532.88;5096651;28;20230;-77
2021/03/27 10:29:39;;;;;;;1.33;0.70;;;;;;;7.99;65.08;94550.06;5096465;28;20194;-79
2021/03/27 10:32:41;;;;;;;0.63;0.63;;;;;;;7.78;63.35;94546.19;5096516;28;20293;-78
2021/03/27 10:35:18;;;;;;;0.70;0.70;;;;;;;7.41;64.62;94550.09;5086050;28;20197;-78
2021/03/27 10:37:53;;;;;;;2.20;0.80;;;;;;;7.03;64.16;94539.34;5096495;28;20201;-77
2021/03/27 10:40:36;;;;;;;2.13;0.60;;;;;;;7.03;62.86;94541.94;5095271;28;20432;-78
2021/03/27 10:43:25;;;;;;;2.40;0.70;;;;;;;7.24;65.46;94558.81;5095945;28;20197;-78
2021/03/27 10:46:00;;;;;;;2.83;0.77;;;;;;;7.74;66.56;94557.91;5096005;28;20684;-78
2021/03/27 10:49:11;;;;;;;2.67;0.93;;;;;;;7.75;63.72;94549.09;5096462;28;20201;-78
2021/03/27 10:52:19;;;;;;;0.70;0.70;;;;;;;8.02;60.80;94573.13;5096085;28;20679;-81
2021/03/27 10:55:19;;;;;;;0.67;0.50;;;;;;;7.69;60.43;94575.75;5088202;28;20604;-80
2021/03/27 10:58:15;;;;;;;1.77;0.80;;;;;;;7.44;60.93;94576.72;5075315;28;20197;-77
2021/03/27 11:01:07;;;;;;;2.90;0.80;;;;;;;7.23;63.03;94580.59;5095112;28;20443;-78
2021/03/27 11:03:55;;;;;;;1.87;0.70;;;;;;;7.09;59.28;94571.63;5092462;28;20202;-79
2021/03/27 11:06:41;;;;;;;0.63;0.60;;;;;;;6.81;61.94;94571.06;5096532;28;20248;-80
2021/03/27 11:09:44;;;;;;;2.63;0.73;;;;;;;6.47;62.57;94559.75;5097288;28;20198;-80
2021/03/27 11:12:38;;;;;;;1.40;0.60;;;;;;;6.82;61.00;94570.91;5095827;28;20428;-84
2021/03/27 11:15:20;;;;;;;0.70;0.70;;;;;;;6.84;62.04;94581.97;5096065;28;20241;-84
2021/03/27 11:18:10;;;;;;;2.73;1.00;;;;;;;6.97;58.64;94581.50;5095066;28;20273;-83
2021/03/27 11:20:55;;;;;;;3.63;0.80;;;;;;;7.19;57.27;94581.88;5087881;28;20226;-82
2021/03/27 11:24:15;;;;;;;4.53;0.83;;;;;;;7.25;64.46;94576.06;5095872;28;20209;-83
2021/03/27 11:27:13;;;;;;;0.83;0.70;;;;;;;7.39;58.38;94578.03;5094706;28;20224;-83
2021/03/27 11:29:48;;;;;;;1.50;0.83;;;;;;;7.28;55.31;94573.13;5070226;28;20197;-80
2021/03/27 11:32:26;;;;;;;1.83;0.80;;;;;;;7.22;62.97;94578.97;5095347;28;20656;-81
2021/03/27 11:34:58;;;;;;;3.38;1.63;;;;;;;7.67;61.43;94582.91;5094487;28;20440;-80
2021/03/27 11:37:38;;;;;;;2.00;0.90;;;;;;;7.45;61.26;94571.38;5095478;28;20234;-82
2021/03/27 11:40:14;;;;;;;1.60;0.80;;;;;;;7.55;62.27;94586.81;5095583;28;20206;-81
2021/03/27 11:42:52;;;;;;;2.20;0.80;;;;;;;7.64;59.98;94583.22;5095214;28;20198;-81
2021/03/27 11:45:26;;;;;;;1.10;0.80;;;;;;;7.58;59.18;94595.09;5095213;28;20198;-80
2021/03/27 11:48:00;;;;;;;2.43;0.70;;;;;;;7.59;59.13;94595.88;5095375;28;20233;-81
2021/03/27 11:50:53;;;;;;;6.97;0.73;;;;;;;7.53;59.29;94597.34;5095111;28;20217;-82
2021/03/27 11:53:39;;;;;;;1.80;0.70;;;;;;;7.76;60.74;94591.50;5094961;28;20198;-83
2021/03/27 11:56:10;;;;;;;1.60;0.70;;;;;;;7.77;57.96;94586.13;5094155;28;20304;-81
2021/03/27 12:01:39;;;;;;;1.07;0.60;;;;;;;7.29;60.04;94587.72;5094757;28;20201;-83
2021/03/27 12:04:16;;;;;;;1.07;0.73;;;;;;;7.39;59.85;94585.81;5094634;28;20201;-81
2021/03/27 12:06:58;;;;;;;2.93;0.87;;;;;;;7.69;63.33;94570.53;5094559;28;20770;-80
2021/03/27 12:09:34;;;;;;;3.90;0.90;;;;;;;7.32;56.31;94603.00;5094714;28;20204;-82
2021/03/27 12:12:12;;;;;;;5.93;1.00;;;;;;;7.45;59.48;94584.34;5094711;28;20243;-82
2021/03/27 12:14:55;;;;;;;1.17;0.80;;;;;;;7.34;57.23;94585.47;5094488;28;20542;-80
2021/03/27 12:17:38;;;;;;;1.70;0.80;;;;;;;7.38;59.21;94597.16;5094771;28;20217;-81
2021/03/27 12:20:29;;;;;;;1.23;0.80;;;;;;;7.46;55.90;94580.78;5094317;28;20244;-82
2021/03/27 12:23:03;;;;;;;1.07;0.80;;;;;;;7.18;56.43;94603.63;5094370;28;20652;-81
2021/03/27 12:25:41;;;;;;;1.03;0.60;;;;;;;7.19;54.02;94610.44;5094631;28;20234;-82
2021/03/27 12:28:17;;;;;;;2.27;0.80;;;;;;;6.93;55.48;94623.50;5094159;28;20202;-81
2021/03/27 12:30:52;;;;;;;1.77;0.90;;;;;;;6.66;56.65;94605.41;5094327;28;20209;-80
2021/03/27 12:33:32;;;;;;;3.80;0.80;;;;;;;6.80;54.87;94616.97;5094324;28;20657;-83
2021/03/27 12:36:07;;;;;;;2.80;1.00;;;;;;;6.81;56.80;94612.59;5094354;28;20205;-81
2021/03/27 12:39:06;;;;;;;3.33;0.83;;;;;;;7.17;56.14;94618.38;5094235;28;20198;-83
2021/03/27 12:41:37;;;;;;;1.43;0.70;;;;;;;7.34;55.38;94629.63;5087649;28;20202;-82
2021/03/27 12:44:07;;;;;;;2.70;0.80;;;;;;;7.06;52.23;94625.66;5094136;28;20202;-81
2021/03/27 12:46:46;;;;;;;4.80;0.90;;;;;;;7.03;54.01;94619.81;5093633;28;20614;-82
2021/03/27 12:49:30;;;;;;;1.37;0.60;;;;;;;7.88;56.30;94615.41;5094069;28;20198;-80